Beards Fork, West Virginia
Current Conditions -  °F | °C
As of 12:51 PM on Tuesday 21 Oct 2014 (Local Time) from KBKW Reporting Station
Overcast Overcast  
Wind Chill: 52°   Ceiling: 2900
Heat Index: 52°   Visibility: 10mi
Dew Point: 46°   Wind: 14mph
Humidity: 80%   Direction: 260°W
Pressure: 29.94"   Gusts: NA
Location:  38.096°N, 81.2492°W
Report Text: KBKW 211651Z AUTO 26012KT 10SM FEW014 BKN029 OVC070 11/08 A2994 RMK AO2 RAB04E30 SLP136 P0001 T01110078 TSNO
Loading
Personal Weather Stations






























Interactive Weather Map New forecast layout! Learn more

10-Day Weather Forecast

Advertisements
Track Severe Weather on mobile